Time;durP1;ratioP1;P1;durP2;ratioP2;P2;SDS_P1;SDS_P2;PMS_P1;PMS_P2;Temp;Humidity;BMP_temperature;BMP_pressure;BME280_temperature;BME280_humidity;BME280_pressure;Samples;Min_cycle;Max_cycle;Signal;HPM_P1;HPM_P2
2021/06/22 00:01:14;;;;;;;17.08;7.50;;;11.50;95.10;;;;;;5012139;28;20387;-52
2021/06/22 00:03:39;;;;;;;15.77;7.20;;;11.50;94.80;;;;;;5013638;28;20034;-51
2021/06/22 00:06:05;;;;;;;14.02;7.63;;;11.50;94.90;;;;;;5012349;28;20513;-53
2021/06/22 00:08:31;;;;;;;16.83;7.50;;;11.40;94.90;;;;;;4975861;28;20530;-53
2021/06/22 00:10:57;;;;;;;15.55;7.28;;;11.40;94.90;;;;;;5008042;28;20049;-54
2021/06/22 00:13:24;;;;;;;15.57;7.03;;;11.40;94.90;;;;;;5011448;28;20100;-53
2021/06/22 00:15:49;;;;;;;11.95;7.05;;;11.40;95.00;;;;;;5011215;28;20131;-52
2021/06/22 00:18:15;;;;;;;12.50;7.40;;;11.30;95.00;;;;;;4994857;28;20045;-54
2021/06/22 00:20:41;;;;;;;16.75;7.20;;;11.30;94.90;;;;;;5011556;28;20113;-49
2021/06/22 00:23:07;;;;;;;15.85;7.72;;;11.30;95.00;;;;;;5014478;28;20048;-53
2021/06/22 00:25:32;;;;;;;14.00;6.88;;;11.30;95.00;;;;;;5013961;28;20038;-51
2021/06/22 00:27:58;;;;;;;13.98;7.25;;;11.30;95.00;;;;;;5009885;28;20570;-54
2021/06/22 00:30:25;;;;;;;14.15;7.03;;;11.30;95.10;;;;;;5012618;28;20108;-55
2021/06/22 00:32:51;;;;;;;12.15;6.82;;;11.30;95.10;;;;;;5012531;28;20037;-53
2021/06/22 00:35:17;;;;;;;17.02;7.30;;;11.30;95.00;;;;;;5012567;28;20054;-54
2021/06/22 00:37:44;;;;;;;11.70;7.03;;;11.30;94.90;;;;;;5013235;28;20049;-54
2021/06/22 00:40:10;;;;;;;12.77;6.90;;;11.20;94.90;;;;;;5011108;28;20056;-55
2021/06/22 00:42:39;;;;;;;13.75;6.70;;;11.20;95.00;;;;;;5012192;28;20046;-53
2021/06/22 00:45:05;;;;;;;12.00;6.20;;;11.20;95.00;;;;;;5011552;28;20465;-55
2021/06/22 00:47:31;;;;;;;14.38;6.72;;;11.20;95.00;;;;;;5011763;28;20042;-54
2021/06/22 00:49:57;;;;;;;14.73;7.22;;;11.20;95.10;;;;;;5012075;28;20117;-55
2021/06/22 00:52:26;;;;;;;12.48;6.75;;;11.20;95.10;;;;;;5012461;28;20118;-53
2021/06/22 00:54:52;;;;;;;14.88;7.38;;;11.20;95.10;;;;;;5009215;28;20070;-50
2021/06/22 00:57:19;;;;;;;14.48;7.38;;;11.20;95.10;;;;;;5012179;28;20034;-50
2021/06/22 00:59:45;;;;;;;15.32;7.55;;;11.20;95.10;;;;;;5015687;28;20037;-52
2021/06/22 01:02:11;;;;;;;12.35;7.10;;;11.10;95.00;;;;;;4994050;28;20038;-51
2021/06/22 01:04:37;;;;;;;14.60;6.47;;;11.10;95.00;;;;;;5011405;28;20038;-52
2021/06/22 01:07:04;;;;;;;16.23;7.32;;;11.10;95.10;;;;;;5010817;28;20038;-50
2021/06/22 01:09:31;;;;;;;11.23;7.45;;;11.10;95.10;;;;;;5010202;28;20045;-53
2021/06/22 01:11:58;;;;;;;14.18;7.15;;;11.10;95.20;;;;;;5011682;28;20038;-52
2021/06/22 01:14:25;;;;;;;13.68;7.28;;;11.10;95.20;;;;;;5011545;28;20417;-53
2021/06/22 01:16:53;;;;;;;13.48;7.57;;;11.10;95.30;;;;;;4998633;28;20065;-54
2021/06/22 01:19:20;;;;;;;12.20;7.80;;;11.10;95.30;;;;;;4995500;28;20407;-49
2021/06/22 01:21:47;;;;;;;13.20;7.47;;;11.20;95.50;;;;;;5011434;28;20434;-52
2021/06/22 01:24:15;;;;;;;13.93;7.65;;;11.20;95.30;;;;;;5015868;28;20045;-54
2021/06/22 01:26:51;;;;;;;13.00;7.22;;;11.20;95.30;;;;;;5011753;28;20125;-52
2021/06/22 01:29:17;;;;;;;14.20;7.20;;;11.20;95.30;;;;;;5007942;28;20046;-53
2021/06/22 01:31:45;;;;;;;14.10;7.63;;;11.20;95.30;;;;;;5013746;28;20423;-52
2021/06/22 01:34:11;;;;;;;17.55;7.82;;;11.20;95.30;;;;;;5013432;28;20042;-52
2021/06/22 01:36:39;;;;;;;17.42;7.43;;;11.20;95.40;;;;;;5015158;28;20418;-54
2021/06/22 01:39:11;;;;;;;12.23;7.38;;;11.20;95.60;;;;;;5018513;28;20072;-55
2021/06/22 01:41:38;;;;;;;12.00;6.72;;;11.20;95.30;;;;;;4996003;28;20057;-53
2021/06/22 01:44:04;;;;;;;17.35;7.32;;;11.20;95.50;;;;;;4992889;28;20545;-52
2021/06/22 01:46:32;;;;;;;13.68;7.53;;;11.20;95.30;;;;;;5009336;28;20038;-54
2021/06/22 01:48:57;;;;;;;17.05;7.90;;;11.20;95.30;;;;;;5012472;28;20149;-51
2021/06/22 01:51:23;;;;;;;12.63;7.63;;;11.20;95.20;;;;;;5011271;28;20250;-52
2021/06/22 01:53:52;;;;;;;13.27;6.95;;;11.20;95.20;;;;;;4980732;28;20038;-51
2021/06/22 01:56:18;;;;;;;13.55;7.30;;;11.20;95.30;;;;;;5015365;28;20319;-51
2021/06/22 01:58:44;;;;;;;17.65;7.90;;;11.20;95.20;;;;;;5010820;28;20108;-51
2021/06/22 02:01:10;;;;;;;17.50;7.88;;;11.20;95.30;;;;;;4994882;28;20494;-54
2021/06/22 02:03:36;;;;;;;16.52;8.15;;;11.30;95.10;;;;;;4999234;28;20049;-55
2021/06/22 02:06:02;;;;;;;13.82;7.30;;;11.30;94.90;;;;;;5005947;28;20050;-53
2021/06/22 02:08:28;;;;;;;13.63;7.85;;;11.20;95.00;;;;;;5007849;28;20421;-53
2021/06/22 02:10:54;;;;;;;17.65;8.00;;;11.20;95.10;;;;;;4983497;28;20050;-54
2021/06/22 02:13:21;;;;;;;10.57;6.88;;;11.10;95.20;;;;;;4993776;28;20068;-54
2021/06/22 02:15:47;;;;;;;17.30;8.10;;;11.20;95.30;;;;;;5006012;28;20042;-51
2021/06/22 02:18:14;;;;;;;15.50;6.72;;;11.20;95.30;;;;;;4975965;28;20069;-53
2021/06/22 02:20:42;;;;;;;15.25;7.32;;;11.20;95.20;;;;;;4978730;28;20445;-53
2021/06/22 02:23:08;;;;;;;14.32;7.03;;;11.20;95.20;;;;;;4993522;28;20026;-54
2021/06/22 02:25:34;;;;;;;14.43;7.60;;;11.20;95.20;;;;;;4992452;28;20060;-55
2021/06/22 02:28:05;;;;;;;14.80;7.00;;;11.20;95.20;;;;;;4995090;28;20051;-55
2021/06/22 02:30:33;;;;;;;15.85;8.07;;;11.20;95.30;;;;;;5005356;28;20117;-48
2021/06/22 02:33:00;;;;;;;18.17;8.20;;;11.30;95.40;;;;;;4970056;28;20054;-52
2021/06/22 02:35:26;;;;;;;18.45;9.20;;;11.20;95.40;;;;;;4983691;28;20466;-53
2021/06/22 02:37:52;;;;;;;17.15;7.85;;;11.30;95.40;;;;;;4994295;28;20053;-51
2021/06/22 02:40:20;;;;;;;16.67;7.43;;;11.30;95.20;;;;;;4996877;28;20043;-51
2021/06/22 02:42:47;;;;;;;11.52;6.95;;;11.30;95.30;;;;;;4984109;28;20077;-54
2021/06/22 02:45:14;;;;;;;17.55;7.85;;;11.30;95.30;;;;;;4995171;28;20042;-53
2021/06/22 02:47:41;;;;;;;14.63;7.80;;;11.30;95.20;;;;;;4980453;28;20121;-49
2021/06/22 02:50:08;;;;;;;14.45;7.40;;;11.30;95.20;;;;;;5000475;28;20050;-51
2021/06/22 02:52:33;;;;;;;15.88;7.68;;;11.20;95.20;;;;;;4987124;28;20050;-51
2021/06/22 02:54:59;;;;;;;14.35;7.13;;;11.20;95.20;;;;;;4973708;28;20561;-50
2021/06/22 02:57:25;;;;;;;12.95;7.13;;;11.20;95.20;;;;;;5000819;28;20038;-51
2021/06/22 02:59:50;;;;;;;13.05;7.47;;;11.20;95.20;;;;;;5003199;28;20046;-49
2021/06/22 03:02:16;;;;;;;14.38;8.30;;;11.20;95.20;;;;;;5007958;28;20054;-50
2021/06/22 03:04:42;;;;;;;15.40;7.68;;;11.20;95.20;;;;;;4994396;28;20419;-50
2021/06/22 03:07:08;;;;;;;14.88;8.40;;;11.10;95.20;;;;;;5017960;28;20580;-50
2021/06/22 03:09:33;;;;;;;17.08;8.43;;;11.10;95.10;;;;;;5028285;28;20469;-53
2021/06/22 03:12:00;;;;;;;18.45;7.88;;;11.10;95.20;;;;;;5017041;28;20482;-53
2021/06/22 03:14:26;;;;;;;15.98;8.65;;;11.20;95.10;;;;;;4998074;28;20552;-50
2021/06/22 03:16:51;;;;;;;17.60;8.52;;;11.10;94.90;;;;;;4999705;28;20066;-51
2021/06/22 03:19:18;;;;;;;19.70;9.55;;;11.10;95.10;;;;;;5011139;28;20066;-50
2021/06/22 03:21:45;;;;;;;20.40;9.15;;;11.10;95.10;;;;;;4986145;28;20066;-50
2021/06/22 03:24:13;;;;;;;17.48;9.45;;;11.10;95.00;;;;;;5014161;28;20034;-49
2021/06/22 03:26:39;;;;;;;19.98;9.88;;;11.10;95.00;;;;;;5016280;28;20042;-49
2021/06/22 03:29:05;;;;;;;21.17;9.32;;;11.10;95.10;;;;;;5013902;28;20483;-49
2021/06/22 03:31:31;;;;;;;19.13;9.85;;;11.10;95.10;;;;;;5015680;28;20073;-48
2021/06/22 03:33:57;;;;;;;18.80;9.77;;;11.10;95.10;;;;;;5014466;28;20458;-51
2021/06/22 03:36:23;;;;;;;18.05;9.73;;;11.10;95.10;;;;;;4995573;28;20041;-51
2021/06/22 03:38:50;;;;;;;18.83;10.20;;;11.00;95.20;;;;;;5017179;28;20509;-54
2021/06/22 03:41:16;;;;;;;20.02;10.35;;;11.00;95.10;;;;;;4998975;28;20132;-51
2021/06/22 03:43:42;;;;;;;18.67;10.02;;;11.00;95.10;;;;;;4997161;28;20060;-51
2021/06/22 03:46:08;;;;;;;19.00;10.05;;;11.00;95.20;;;;;;5001188;28;20061;-50
2021/06/22 03:48:34;;;;;;;19.23;10.18;;;11.00;95.20;;;;;;5015590;28;20049;-52
2021/06/22 03:51:00;;;;;;;23.48;10.48;;;11.00;95.30;;;;;;5016007;28;20057;-49
2021/06/22 03:53:25;;;;;;;20.70;10.45;;;11.00;95.30;;;;;;5014901;28;20042;-49
2021/06/22 03:55:51;;;;;;;18.90;10.43;;;11.00;95.30;;;;;;5013718;28;20387;-50
2021/06/22 03:58:17;;;;;;;21.23;10.15;;;10.90;95.30;;;;;;5014502;28;20042;-52
2021/06/22 04:00:43;;;;;;;17.88;10.55;;;11.00;95.30;;;;;;5022805;28;20045;-53
2021/06/22 04:03:13;;;;;;;17.40;10.85;;;11.00;95.30;;;;;;5007061;28;20073;-49
2021/06/22 04:05:39;;;;;;;17.70;10.13;;;10.90;95.20;;;;;;5012927;28;20036;-49
2021/06/22 04:08:05;;;;;;;21.10;10.57;;;11.00;95.30;;;;;;5013758;28;20050;-51
2021/06/22 04:10:31;;;;;;;16.95;10.32;;;11.00;95.20;;;;;;5013275;28;20049;-52
2021/06/22 04:12:57;;;;;;;16.25;9.93;;;11.00;95.20;;;;;;5014672;28;20509;-49
2021/06/22 04:15:23;;;;;;;18.08;10.55;;;11.00;95.30;;;;;;5013823;28;20048;-49
2021/06/22 04:17:49;;;;;;;17.75;10.13;;;11.00;95.30;;;;;;5012879;28;20084;-48
2021/06/22 04:20:17;;;;;;;17.25;10.15;;;11.00;95.40;;;;;;5017504;28;20042;-52
2021/06/22 04:22:42;;;;;;;21.75;11.02;;;11.00;95.40;;;;;;4996118;28;20057;-49
2021/06/22 04:25:09;;;;;;;23.92;11.07;;;11.00;95.40;;;;;;5012246;28;20042;-53
2021/06/22 04:27:35;;;;;;;19.17;10.85;;;11.10;95.40;;;;;;5012086;28;20103;-49
2021/06/22 04:30:03;;;;;;;18.13;10.18;;;11.10;95.50;;;;;;5013230;28;20030;-50
2021/06/22 04:32:28;;;;;;;19.70;9.73;;;11.10;95.30;;;;;;5011602;28;20038;-51
2021/06/22 04:34:55;;;;;;;19.75;10.20;;;11.10;95.30;;;;;;4996626;28;20069;-54
2021/06/22 04:37:21;;;;;;;18.52;10.43;;;11.10;95.40;;;;;;5012767;28;20073;-50
2021/06/22 04:39:47;;;;;;;21.02;11.13;;;11.00;95.30;;;;;;4996037;28;20427;-51
2021/06/22 04:42:12;;;;;;;19.42;11.73;;;11.10;95.50;;;;;;5015953;28;20073;-50
2021/06/22 04:44:38;;;;;;;20.25;11.82;;;11.10;95.40;;;;;;5013569;28;20129;-50
2021/06/22 04:47:04;;;;;;;22.15;12.60;;;11.10;95.50;;;;;;5014355;28;20105;-49
2021/06/22 04:49:29;;;;;;;23.80;11.73;;;11.20;95.50;;;;;;5013113;28;20050;-49
2021/06/22 04:51:55;;;;;;;13.95;10.15;;;11.20;95.50;;;;;;5010985;28;20100;-51
2021/06/22 04:54:23;;;;;;;20.83;12.18;;;11.20;95.40;;;;;;5021710;28;20049;-50
2021/06/22 04:56:48;;;;;;;24.88;12.20;;;11.30;95.40;;;;;;5016690;28;20034;-49
2021/06/22 04:59:14;;;;;;;19.48;11.50;;;11.40;95.00;;;;;;5012993;28;20096;-51
2021/06/22 05:01:40;;;;;;;21.05;12.05;;;11.50;94.80;;;;;;5014346;28;20049;-52
2021/06/22 05:04:10;;;;;;;19.73;11.95;;;11.50;94.80;;;;;;5017322;28;20436;-52
2021/06/22 05:06:36;;;;;;;19.50;13.55;;;11.60;94.70;;;;;;5013375;28;20473;-51
2021/06/22 05:09:04;;;;;;;20.08;13.25;;;11.70;94.30;;;;;;5010439;28;20034;-51
2021/06/22 05:11:30;;;;;;;24.58;13.00;;;11.70;94.30;;;;;;5019604;28;20049;-50
2021/06/22 05:13:56;;;;;;;23.85;13.82;;;11.80;94.20;;;;;;5014192;28;20041;-54
2021/06/22 05:16:23;;;;;;;25.58;13.38;;;12.00;94.40;;;;;;4992635;28;20126;-52
2021/06/22 05:18:49;;;;;;;24.85;13.75;;;11.90;94.30;;;;;;5010971;28;20042;-52
2021/06/22 05:21:16;;;;;;;26.90;14.48;;;12.00;94.30;;;;;;5014690;28;20498;-53
2021/06/22 05:23:41;;;;;;;24.10;13.75;;;12.00;94.10;;;;;;4995200;28;20050;-52
2021/06/22 05:26:07;;;;;;;24.02;14.02;;;12.10;94.20;;;;;;5011503;28;20053;-50
2021/06/22 05:28:33;;;;;;;24.73;14.13;;;12.20;93.80;;;;;;5014445;28;20457;-49
2021/06/22 05:30:59;;;;;;;24.42;14.65;;;12.30;93.70;;;;;;5014410;28;20517;-52
2021/06/22 05:33:24;;;;;;;22.73;14.45;;;12.30;93.60;;;;;;5014139;28;20115;-51
2021/06/22 05:35:51;;;;;;;28.75;14.38;;;12.40;93.50;;;;;;5012411;28;20053;-50
2021/06/22 05:38:16;;;;;;;20.23;14.32;;;12.40;93.30;;;;;;5015902;28;20050;-48
2021/06/22 05:40:42;;;;;;;26.33;14.82;;;12.50;93.40;;;;;;5012529;28;20442;-49
2021/06/22 05:43:08;;;;;;;24.15;15.07;;;12.50;93.20;;;;;;5012761;28;20034;-49
2021/06/22 05:45:33;;;;;;;24.52;13.75;;;12.70;92.80;;;;;;5018036;28;20126;-50
2021/06/22 05:47:59;;;;;;;23.38;13.73;;;12.70;92.80;;;;;;5017928;28;20037;-52
2021/06/22 05:50:25;;;;;;;28.75;14.57;;;12.70;92.50;;;;;;5012420;28;20113;-49
2021/06/22 05:52:53;;;;;;;22.73;13.65;;;12.80;92.40;;;;;;5013626;28;20084;-51
2021/06/22 05:55:21;;;;;;;28.60;14.95;;;12.80;92.20;;;;;;5014333;28;20046;-52
2021/06/22 05:57:51;;;;;;;25.15;13.52;;;12.80;92.10;;;;;;5017991;28;20053;-49
2021/06/22 06:00:20;;;;;;;25.27;14.13;;;13.00;91.90;;;;;;5010424;28;20054;-53
2021/06/22 06:02:46;;;;;;;22.60;14.30;;;13.20;91.60;;;;;;5006598;28;20498;-55
2021/06/22 06:05:13;;;;;;;26.73;14.23;;;13.30;90.40;;;;;;5011862;28;20049;-53
2021/06/22 06:07:39;;;;;;;24.88;13.93;;;13.30;90.90;;;;;;5002842;28;20497;-53
2021/06/22 06:10:06;;;;;;;24.65;14.27;;;13.20;91.00;;;;;;5013173;28;20041;-54
2021/06/22 06:12:32;;;;;;;19.38;13.43;;;13.20;91.00;;;;;;5018728;28;20037;-53
2021/06/22 06:14:58;;;;;;;20.75;13.95;;;13.30;90.80;;;;;;5025136;28;20040;-53
2021/06/22 06:17:24;;;;;;;24.92;13.88;;;13.30;90.90;;;;;;5030483;28;20061;-54
2021/06/22 06:19:52;;;;;;;21.70;14.63;;;13.30;90.90;;;;;;5021420;28;20119;-52
2021/06/22 06:22:19;;;;;;;24.55;14.07;;;13.40;90.90;;;;;;5012618;28;20034;-54
2021/06/22 06:24:45;;;;;;;23.77;12.75;;;13.40;91.00;;;;;;5017766;28;20465;-54
2021/06/22 06:27:15;;;;;;;22.17;13.70;;;13.40;90.90;;;;;;5021834;28;20038;-55
2021/06/22 06:29:49;;;;;;;22.85;13.60;;;13.40;90.40;;;;;;5027395;28;20107;-52
2021/06/22 06:32:15;;;;;;;26.40;13.73;;;13.40;90.40;;;;;;4986857;28;20055;-55
2021/06/22 06:34:42;;;;;;;20.77;12.85;;;13.40;90.50;;;;;;5018726;28;20045;-51
2021/06/22 06:37:08;;;;;;;21.58;13.60;;;13.40;90.50;;;;;;5013912;28;20104;-53
2021/06/22 06:39:34;;;;;;;19.60;12.77;;;13.40;90.50;;;;;;5020344;28;20453;-51
2021/06/22 06:41:59;;;;;;;21.88;12.77;;;13.50;90.40;;;;;;5026502;28;20034;-51
2021/06/22 06:44:25;;;;;;;19.92;12.88;;;13.50;90.30;;;;;;5029877;28;20438;-52
2021/06/22 06:46:51;;;;;;;20.10;12.52;;;13.60;90.10;;;;;;5021599;28;20037;-53
2021/06/22 06:49:17;;;;;;;19.02;11.20;;;13.70;90.20;;;;;;4997850;28;20061;-53
2021/06/22 06:51:43;;;;;;;18.85;10.65;;;13.70;89.80;;;;;;4983174;28;20061;-51
2021/06/22 06:54:09;;;;;;;18.02;9.90;;;13.90;88.00;;;;;;5014406;28;20096;-53
2021/06/22 06:56:34;;;;;;;19.55;10.70;;;13.90;86.10;;;;;;5021761;28;20394;-53
2021/06/22 06:59:00;;;;;;;17.45;9.02;;;14.00;84.10;;;;;;5020183;28;20091;-52
2021/06/22 07:01:26;;;;;;;17.42;9.70;;;14.10;83.20;;;;;;5026198;28;20046;-50
2021/06/22 07:03:53;;;;;;;16.90;9.27;;;14.10;83.80;;;;;;5010208;28;20145;-55
2021/06/22 07:06:18;;;;;;;16.20;8.52;;;14.10;84.60;;;;;;5012238;28;20130;-54
2021/06/22 07:08:44;;;;;;;19.00;8.77;;;14.30;81.60;;;;;;5014856;28;20133;-54
2021/06/22 07:11:11;;;;;;;14.50;8.23;;;14.40;81.90;;;;;;4998899;28;20030;-55
2021/06/22 07:13:36;;;;;;;18.00;9.70;;;14.50;83.20;;;;;;5009089;28;20049;-53
2021/06/22 07:16:07;;;;;;;20.08;9.80;;;14.60;83.40;;;;;;5015281;28;20052;-49
2021/06/22 07:18:33;;;;;;;24.73;9.18;;;14.80;81.80;;;;;;5014572;28;20105;-52
2021/06/22 07:20:59;;;;;;;23.15;9.88;;;14.90;81.40;;;;;;5014494;28;20387;-54
2021/06/22 07:23:26;;;;;;;13.60;8.15;;;15.10;82.30;;;;;;5033464;28;20119;-55
2021/06/22 07:25:52;;;;;;;16.75;8.15;;;15.30;76.80;;;;;;5024169;28;20053;-55
2021/06/22 07:28:18;;;;;;;20.08;9.93;;;15.30;75.60;;;;;;5030475;28;20043;-54
2021/06/22 07:30:43;;;;;;;17.48;8.60;;;15.30;76.30;;;;;;5033179;28;20041;-53
2021/06/22 07:33:09;;;;;;;17.05;8.10;;;15.30;76.20;;;;;;5018403;28;20088;-53
2021/06/22 07:35:35;;;;;;;15.43;8.00;;;15.30;79.20;;;;;;5026057;28;20044;-55
2021/06/22 07:38:03;;;;;;;14.73;7.32;;;15.40;76.90;;;;;;5016232;28;20057;-54
2021/06/22 07:40:48;;;;;;;11.57;6.25;;;15.50;76.70;;;;;;4990248;28;20041;-55
2021/06/22 07:43:15;;;;;;;13.80;6.40;;;15.50;77.40;;;;;;5012818;28;20042;-55
2021/06/22 07:45:41;;;;;;;15.48;6.75;;;15.60;75.60;;;;;;5017434;28;20049;-54
2021/06/22 07:48:09;;;;;;;18.23;7.20;;;15.60;76.50;;;;;;5014440;28;20095;-55
2021/06/22 07:50:36;;;;;;;17.20;5.78;;;15.70;76.80;;;;;;5014438;28;20038;-53
2021/06/22 07:53:02;;;;;;;15.10;6.75;;;15.80;77.10;;;;;;4995711;28;20454;-51
2021/06/22 07:55:30;;;;;;;12.98;6.10;;;16.00;77.40;;;;;;5013498;28;20037;-53
2021/06/22 07:57:57;;;;;;;14.88;6.43;;;16.20;74.60;;;;;;4997675;28;20052;-55
2021/06/22 08:00:36;;;;;;;15.45;5.72;;;16.20;74.30;;;;;;5014079;28;20057;-55
2021/06/22 08:03:02;;;;;;;11.65;6.15;;;16.30;72.80;;;;;;5028569;28;20489;-55
2021/06/22 08:05:28;;;;;;;14.02;5.88;;;16.30;74.10;;;;;;5013994;28;20038;-52
2021/06/22 08:07:54;;;;;;;13.43;5.90;;;16.30;71.40;;;;;;5013558;28;20045;-49
2021/06/22 08:10:21;;;;;;;15.43;5.55;;;16.10;71.80;;;;;;4995458;28;20089;-51
2021/06/22 08:12:46;;;;;;;13.90;6.05;;;16.00;71.40;;;;;;5013976;28;20533;-50
2021/06/22 08:15:13;;;;;;;17.15;6.05;;;15.90;71.20;;;;;;5012478;28;20153;-52
2021/06/22 08:17:38;;;;;;;13.77;6.20;;;15.90;72.70;;;;;;5013898;28;20421;-53
2021/06/22 08:20:05;;;;;;;15.93;5.78;;;16.00;72.30;;;;;;5014364;28;20041;-53
2021/06/22 08:22:31;;;;;;;14.02;6.22;;;16.00;74.40;;;;;;5015955;28;20042;-53
2021/06/22 08:24:57;;;;;;;10.95;5.15;;;16.20;71.70;;;;;;5012503;28;20046;-54
2021/06/22 08:27:23;;;;;;;17.42;5.78;;;16.30;73.30;;;;;;5012584;28;20049;-54
2021/06/22 08:29:48;;;;;;;10.30;5.35;;;16.50;69.60;;;;;;5014660;28;20058;-53
2021/06/22 08:32:14;;;;;;;12.60;5.78;;;16.50;67.70;;;;;;5013811;28;20037;-55
2021/06/22 08:34:40;;;;;;;12.82;5.60;;;16.40;70.20;;;;;;5012310;28;20046;-55
2021/06/22 08:37:07;;;;;;;12.63;6.05;;;16.50;71.00;;;;;;5009558;28;20046;-55
2021/06/22 08:39:34;;;;;;;13.38;5.75;;;16.60;69.30;;;;;;5005181;28;20092;-55
2021/06/22 08:42:02;;;;;;;17.02;5.93;;;16.60;71.60;;;;;;5012059;28;20038;-54
2021/06/22 08:44:30;;;;;;;15.88;5.57;;;16.70;71.20;;;;;;5006567;28;20088;-52
2021/06/22 08:46:57;;;;;;;13.20;4.88;;;16.80;70.60;;;;;;5013318;28;20046;-51
2021/06/22 08:49:24;;;;;;;11.57;5.30;;;16.80;68.10;;;;;;4994548;28;20140;-50
2021/06/22 08:51:52;;;;;;;11.15;5.53;;;16.90;69.10;;;;;;5013374;28;20030;-53
2021/06/22 08:54:18;;;;;;;13.30;6.45;;;16.90;69.70;;;;;;5014309;28;20430;-54
2021/06/22 08:56:44;;;;;;;11.65;5.38;;;16.90;69.90;;;;;;4995160;28;20038;-54
2021/06/22 08:59:10;;;;;;;12.38;5.55;;;16.90;69.90;;;;;;5012219;28;20038;-54
2021/06/22 09:01:35;;;;;;;10.35;5.30;;;17.00;67.30;;;;;;5012177;28;20111;-51
2021/06/22 09:04:01;;;;;;;10.40;5.45;;;17.00;67.30;;;;;;5012409;28;20041;-53
2021/06/22 09:06:37;;;;;;;14.40;6.05;;;17.10;70.20;;;;;;4998922;28;20493;-50
2021/06/22 09:09:08;;;;;;;19.33;6.22;;;17.20;72.10;;;;;;5001325;28;20057;-52
2021/06/22 09:11:37;;;;;;;10.82;4.97;;;17.30;71.70;;;;;;4975503;28;20038;-51
2021/06/22 09:14:09;;;;;;;10.93;4.63;;;17.30;69.50;;;;;;4986008;28;20037;-52
2021/06/22 09:16:37;;;;;;;14.95;4.60;;;17.30;66.20;;;;;;4991045;28;20038;-53
2021/06/22 09:19:05;;;;;;;11.35;4.95;;;17.40;68.70;;;;;;4992098;28;20048;-52
2021/06/22 09:21:40;;;;;;;13.65;4.53;;;17.50;69.10;;;;;;4990362;28;20081;-52
2021/06/22 09:24:15;;;;;;;13.45;5.40;;;17.50;68.40;;;;;;4992958;28;20038;-52
2021/06/22 09:26:44;;;;;;;16.60;4.60;;;17.50;67.80;;;;;;4992921;28;20038;-50
2021/06/22 09:29:13;;;;;;;9.00;4.50;;;17.40;67.70;;;;;;4993551;28;20105;-52
2021/06/22 09:31:56;;;;;;;10.60;4.70;;;17.20;69.30;;;;;;4975728;28;20517;-51
2021/06/22 09:34:24;;;;;;;8.63;4.28;;;17.10;70.70;;;;;;5001823;28;20458;-53
2021/06/22 09:36:58;;;;;;;13.20;4.20;;;17.00;70.70;;;;;;5008079;28;20038;-52
2021/06/22 09:39:27;;;;;;;12.90;4.65;;;16.80;71.60;;;;;;4992882;28;20046;-49
2021/06/22 09:41:55;;;;;;;9.45;4.35;;;16.70;71.80;;;;;;4990013;28;20491;-55
2021/06/22 09:44:23;;;;;;;12.65;4.45;;;16.70;71.00;;;;;;5007091;28;20046;-52
2021/06/22 09:46:51;;;;;;;11.38;4.40;;;16.80;70.50;;;;;;5008598;28;20046;-55
2021/06/22 09:49:18;;;;;;;13.00;4.10;;;17.00;69.10;;;;;;5011426;28;20088;-54
2021/06/22 09:52:09;;;;;;;9.57;4.45;;;17.00;69.00;;;;;;5006903;28;20038;-49
2021/06/22 09:54:49;;;;;;;12.13;4.28;;;17.00;70.00;;;;;;4990984;28;20061;-54
2021/06/22 09:57:15;;;;;;;;;;;16.90;70.40;;;;;;4977298;28;20081;-52
2021/06/22 09:59:51;;;;;;;11.20;4.28;;;16.80;70.50;;;;;;4989681;28;19918;-52
2021/06/22 10:02:22;;;;;;;11.50;4.40;;;16.80;69.80;;;;;;4970261;28;20076;-52
2021/06/22 10:04:50;;;;;;;10.82;3.75;;;16.90;68.20;;;;;;4979041;28;20057;-54
2021/06/22 10:07:18;;;;;;;13.38;5.30;;;16.80;68.10;;;;;;4998891;28;20069;-54
2021/06/22 10:09:52;;;;;;;10.27;4.13;;;16.80;67.30;;;;;;4999862;28;20048;-50
2021/06/22 10:12:18;;;;;;;11.52;4.25;;;16.80;66.10;;;;;;4991714;28;20042;-50
2021/06/22 10:14:47;;;;;;;10.38;3.70;;;16.90;65.80;;;;;;4986376;28;20076;-53
2021/06/22 10:17:20;;;;;;;10.13;3.92;;;16.70;67.60;;;;;;5010672;28;20038;-50
2021/06/22 10:19:49;;;;;;;8.55;3.88;;;16.70;67.90;;;;;;5002706;28;20054;-53
2021/06/22 10:22:17;;;;;;;9.40;4.07;;;16.70;68.70;;;;;;5004191;28;20050;-51
2021/06/22 10:24:45;;;;;;;9.57;4.07;;;16.70;68.90;;;;;;4957094;28;20038;-50
2021/06/22 10:27:16;;;;;;;8.77;3.90;;;16.70;67.40;;;;;;4991038;28;20043;-52
2021/06/22 10:29:46;;;;;;;9.05;4.25;;;16.70;68.70;;;;;;4991540;28;20417;-54
2021/06/22 10:32:14;;;;;;;7.57;3.78;;;16.80;67.40;;;;;;4996657;28;20545;-52
2021/06/22 10:34:49;;;;;;;8.90;3.97;;;16.70;68.60;;;;;;4977136;28;20042;-53
2021/06/22 10:37:22;;;;;;;7.72;3.88;;;16.70;68.20;;;;;;4991381;28;20046;-54
2021/06/22 10:39:50;;;;;;;10.75;4.30;;;16.70;69.40;;;;;;4974052;28;20074;-54
2021/06/22 10:42:17;;;;;;;8.85;3.83;;;16.80;67.10;;;;;;4990124;28;20117;-51
2021/06/22 10:45:00;;;;;;;9.40;3.70;;;16.90;65.10;;;;;;4995304;28;20038;-52
2021/06/22 10:47:35;;;;;;;8.70;4.20;;;16.90;64.70;;;;;;4998851;28;20046;-55
2021/06/22 10:50:18;;;;;;;12.57;3.92;;;16.80;65.00;;;;;;4997839;28;20035;-55
2021/06/22 10:55:33;;;;;;;7.68;3.50;;;17.00;63.10;;;;;;4975477;28;20053;-50
2021/06/22 10:58:02;;;;;;;11.82;4.20;;;17.20;63.80;;;;;;4973953;28;20054;-50
2021/06/22 11:00:37;;;;;;;11.80;4.50;;;17.30;66.30;;;;;;4971365;28;20431;-54
2021/06/22 11:03:09;;;;;;;8.05;4.03;;;17.60;63.80;;;;;;4998782;28;20070;-50
2021/06/22 11:05:37;;;;;;;12.00;3.95;;;17.60;63.80;;;;;;4997392;28;20495;-56
2021/06/22 11:08:08;;;;;;;10.68;4.18;;;17.60;64.00;;;;;;5005994;28;20061;-54
2021/06/22 11:10:39;;;;;;;7.20;3.83;;;17.70;65.10;;;;;;4997072;28;20053;-54
2021/06/22 11:13:06;;;;;;;9.93;4.07;;;17.60;65.00;;;;;;4996526;28;20053;-52
2021/06/22 11:16:01;;;;;;;15.10;4.25;;;17.40;64.80;;;;;;5013455;28;20042;-54
2021/06/22 11:18:47;;;;;;;7.35;3.90;;;17.30;65.00;;;;;;4994944;28;20058;-53
2021/06/22 11:21:13;;;;;;;8.98;3.97;;;17.20;65.20;;;;;;5011582;28;20101;-51
2021/06/22 11:24:10;;;;;;;11.70;4.18;;;17.10;66.60;;;;;;5014143;28;20061;-54
2021/06/22 11:26:39;;;;;;;10.27;4.40;;;17.10;67.40;;;;;;4980730;28;20046;-55
2021/06/22 11:29:05;;;;;;;9.05;3.60;;;17.20;66.40;;;;;;5006877;28;20046;-55
2021/06/22 11:31:35;;;;;;;14.68;4.38;;;17.20;66.40;;;;;;4998826;28;20109;-53
2021/06/22 11:34:15;;;;;;;10.77;3.85;;;17.10;66.80;;;;;;4996448;28;20069;-55
2021/06/22 11:37:04;;;;;;;11.65;4.20;;;17.10;68.40;;;;;;4999718;28;20067;-54
2021/06/22 11:39:35;;;;;;;8.75;4.05;;;17.30;66.20;;;;;;5011483;28;20057;-55
2021/06/22 11:42:10;;;;;;;11.25;4.35;;;17.30;66.70;;;;;;5024871;28;20478;-55
2021/06/22 11:44:44;;;;;;;13.65;4.28;;;17.40;65.80;;;;;;5012629;28;20049;-55
2021/06/22 11:47:13;;;;;;;10.93;4.50;;;17.30;68.20;;;;;;5012853;28;20034;-54
2021/06/22 11:49:46;;;;;;;12.20;4.45;;;17.30;68.70;;;;;;5013813;28;20050;-53
2021/06/22 11:52:14;;;;;;;10.55;4.25;;;17.20;68.80;;;;;;5012837;28;20521;-53
2021/06/22 11:54:55;;;;;;;14.02;4.55;;;17.30;66.70;;;;;;5013089;28;20100;-54
2021/06/22 11:57:30;;;;;;;14.07;4.78;;;17.30;65.60;;;;;;5014336;28;20398;-54
2021/06/22 12:00:15;;;;;;;11.05;4.82;;;17.20;65.70;;;;;;5019310;28;20061;-53
2021/06/22 12:02:50;;;;;;;12.05;4.53;;;17.20;67.40;;;;;;5011907;28;20048;-54
2021/06/22 12:05:18;;;;;;;11.68;4.43;;;17.10;68.20;;;;;;5018373;28;20038;-55
2021/06/22 12:07:47;;;;;;;12.65;4.43;;;17.20;68.80;;;;;;5009322;28;20185;-52
2021/06/22 12:10:14;;;;;;;13.63;4.47;;;17.50;66.50;;;;;;5002725;28;20042;-54
2021/06/22 12:12:44;;;;;;;10.45;4.53;;;17.50;65.20;;;;;;5003973;28;20033;-53
2021/06/22 12:15:11;;;;;;;10.00;3.95;;;17.60;66.80;;;;;;4981254;28;20042;-55
2021/06/22 12:17:38;;;;;;;12.50;4.60;;;17.70;65.20;;;;;;4990281;28;20045;-52
2021/06/22 12:20:20;;;;;;;10.40;4.28;;;17.70;64.60;;;;;;5012107;28;20036;-51
2021/06/22 12:23:04;;;;;;;12.25;4.25;;;17.60;64.50;;;;;;5020860;28;20045;-55
2021/06/22 12:25:44;;;;;;;11.65;4.70;;;17.40;66.90;;;;;;4997010;28;20041;-51
2021/06/22 12:28:11;;;;;;;13.20;4.53;;;17.20;67.30;;;;;;5013212;28;20048;-52
2021/06/22 12:30:46;;;;;;;12.52;4.72;;;17.30;65.50;;;;;;4969960;28;20442;-51
2021/06/22 12:33:23;;;;;;;10.45;4.28;;;17.30;66.60;;;;;;5032924;28;20044;-53
2021/06/22 12:35:51;;;;;;;9.15;4.40;;;17.30;66.40;;;;;;5013611;28;20129;-52
2021/06/22 12:38:20;;;;;;;11.85;4.68;;;17.60;64.80;;;;;;4984606;28;20054;-53
2021/06/22 12:40:59;;;;;;;12.65;4.80;;;17.70;66.90;;;;;;5008279;28;20498;-55
2021/06/22 12:43:45;;;;;;;13.82;5.30;;;17.80;65.70;;;;;;5012276;28;20105;-54